Time;durP1;ratioP1;P1;durP2;ratioP2;P2;SDS_P1;SDS_P2;PMS_P1;PMS_P2;Temp;Humidity;BMP_temperature;BMP_pressure;BME280_temperature;BME280_humidity;BME280_pressure;Samples;Min_cycle;Max_cycle;Signal;HPM_P1;HPM_P2
2023/01/19 07:15:37;;;;;;;12.75;5.43;;;0.20;99.90;;;;;;5135409;23;20412;-77
2023/01/19 07:18:08;;;;;;;10.15;6.22;;;0.20;99.90;;;;;;4922172;29;20060;-77
2023/01/19 07:20:36;;;;;;;10.60;5.75;;;0.20;99.90;;;;;;4923070;29;20056;-76
2023/01/19 07:23:03;;;;;;;10.07;5.75;;;0.20;99.90;;;;;;4899529;29;20048;-76
2023/01/19 07:25:30;;;;;;;8.65;5.38;;;0.20;99.90;;;;;;4929296;29;20055;-76
2023/01/19 07:27:58;;;;;;;10.52;5.40;;;0.10;99.90;;;;;;4933171;29;20048;-76
2023/01/19 07:30:25;;;;;;;9.77;5.10;;;0.20;99.90;;;;;;4929242;29;20412;-77
2023/01/19 07:32:56;;;;;;;9.38;4.97;;;0.30;99.90;;;;;;4922895;29;20079;-77
2023/01/19 07:35:24;;;;;;;8.23;5.05;;;0.30;99.90;;;;;;4925674;29;20135;-77
2023/01/19 07:37:51;;;;;;;7.40;4.20;;;0.40;99.90;;;;;;4909531;29;20055;-77
2023/01/19 07:40:17;;;;;;;5.78;3.97;;;0.40;99.90;;;;;;4922435;29;20059;-77
2023/01/19 07:42:49;;;;;;;11.23;4.63;;;0.40;99.90;;;;;;4922632;29;20067;-77
2023/01/19 07:45:17;;;;;;;6.97;4.38;;;0.50;99.90;;;;;;4919371;29;20095;-77
2023/01/19 07:47:44;;;;;;;8.00;3.65;;;0.60;99.90;;;;;;4918608;29;20052;-77
2023/01/19 07:50:12;;;;;;;5.80;4.32;;;0.70;99.90;;;;;;4926357;29;20524;-77
2023/01/19 07:52:39;;;;;;;7.00;4.03;;;0.80;99.90;;;;;;4952840;23;20052;-79
2023/01/19 07:55:06;;;;;;;7.10;4.10;;;0.80;99.90;;;;;;4934415;29;20062;-81
2023/01/19 07:57:34;;;;;;;6.20;3.85;;;0.80;99.90;;;;;;4939498;29;20135;-81
2023/01/19 08:00:02;;;;;;;5.43;4.10;;;0.90;99.90;;;;;;4940982;29;20087;-81
2023/01/19 08:02:32;;;;;;;7.68;4.13;;;1.00;99.90;;;;;;4935818;29;20482;-81
2023/01/19 08:04:59;;;;;;;11.93;4.28;;;0.90;99.90;;;;;;4897867;29;20044;-82
2023/01/19 08:07:26;;;;;;;5.63;4.20;;;1.00;99.90;;;;;;4914282;29;20480;-80
2023/01/19 08:09:52;;;;;;;5.35;3.70;;;1.00;99.90;;;;;;4916926;29;20044;-78
2023/01/19 08:12:19;;;;;;;8.02;3.72;;;1.00;99.90;;;;;;4904470;29;20048;-81
2023/01/19 08:14:46;;;;;;;5.88;4.00;;;1.00;99.90;;;;;;4839325;29;20044;-79
2023/01/19 08:17:13;;;;;;;9.73;4.30;;;0.90;99.90;;;;;;4913455;29;20063;-81
2023/01/19 08:19:40;;;;;;;5.85;3.75;;;1.00;99.90;;;;;;4909137;29;20120;-80
2023/01/19 08:22:08;;;;;;;5.97;3.60;;;1.00;99.90;;;;;;4918527;29;20056;-81
2023/01/19 08:24:34;;;;;;;7.00;4.20;;;1.00;99.90;;;;;;4903300;29;20056;-80
2023/01/19 08:27:02;;;;;;;7.10;3.88;;;1.00;99.90;;;;;;4918560;29;20054;-80
2023/01/19 08:29:32;;;;;;;5.63;3.63;;;1.00;99.90;;;;;;4902803;29;20076;-79
2023/01/19 08:32:01;;;;;;;7.85;4.53;;;1.00;99.90;;;;;;4921740;29;20044;-81
2023/01/19 08:34:31;;;;;;;7.55;4.40;;;1.00;99.90;;;;;;4927932;29;20048;-80
2023/01/19 08:36:58;;;;;;;;;;;1.10;99.90;;;;;;4917693;29;20116;-80
2023/01/19 08:39:26;;;;;;;7.43;4.53;;;1.10;99.90;;;;;;4910540;29;20745;-83
2023/01/19 08:41:53;;;;;;;9.63;5.25;;;1.10;99.90;;;;;;4912528;29;20087;-79
2023/01/19 08:44:20;;;;;;;8.27;4.47;;;1.10;99.90;;;;;;4904872;29;20055;-80
2023/01/19 08:46:47;;;;;;;9.25;4.93;;;1.10;99.90;;;;;;4918551;29;20112;-80
2023/01/19 08:49:14;;;;;;;7.38;4.57;;;1.10;99.90;;;;;;4914233;29;20053;-81
2023/01/19 08:51:41;;;;;;;6.57;4.53;;;1.20;99.90;;;;;;4903333;29;20072;-81
2023/01/19 08:54:08;;;;;;;15.35;5.90;;;1.30;99.90;;;;;;4918715;29;20059;-80
2023/01/19 08:56:35;;;;;;;8.73;5.75;;;1.30;99.90;;;;;;4920998;29;20051;-79
2023/01/19 08:59:02;;;;;;;12.93;6.07;;;1.50;99.90;;;;;;4900960;29;20087;-78
2023/01/19 09:01:36;;;;;;;6.15;3.97;;;1.60;99.90;;;;;;4901635;29;20056;-86
2023/01/19 09:04:03;;;;;;;5.65;4.28;;;1.60;99.90;;;;;;4909280;29;20056;-80
2023/01/19 09:06:31;;;;;;;6.03;3.92;;;1.70;99.90;;;;;;4905031;29;20600;-79
2023/01/19 09:08:58;;;;;;;13.82;5.03;;;1.90;99.90;;;;;;4898070;29;20056;-80
2023/01/19 09:11:26;;;;;;;9.38;4.03;;;2.00;99.90;;;;;;4901576;29;20644;-81
2023/01/19 09:13:53;;;;;;;6.53;4.57;;;2.10;99.90;;;;;;4908286;29;20406;-79
2023/01/19 09:16:19;;;;;;;6.57;4.55;;;2.20;99.90;;;;;;4917853;29;20060;-78
2023/01/19 09:18:46;;;;;;;6.07;4.22;;;2.30;99.90;;;;;;4915508;29;20048;-81
2023/01/19 09:21:13;;;;;;;8.32;4.70;;;2.40;99.90;;;;;;4894775;29;20088;-80
2023/01/19 09:23:40;;;;;;;9.07;5.03;;;2.50;99.90;;;;;;4916511;29;20489;-79
2023/01/19 09:26:07;;;;;;;10.07;5.00;;;2.50;99.90;;;;;;4905786;29;20059;-80
2023/01/19 09:28:34;;;;;;;8.27;4.60;;;2.50;99.90;;;;;;4916005;29;20075;-80
2023/01/19 09:31:06;;;;;;;6.25;4.53;;;2.50;99.90;;;;;;4906843;29;20066;-79
2023/01/19 09:33:34;;;;;;;9.02;4.63;;;2.50;99.90;;;;;;4910041;29;20072;-79
2023/01/19 09:36:01;;;;;;;8.40;4.65;;;2.50;99.90;;;;;;4915080;29;20053;-81
2023/01/19 09:38:31;;;;;;;6.70;4.40;;;2.50;99.90;;;;;;4913397;29;20048;-79
2023/01/19 09:40:59;;;;;;;8.45;5.10;;;2.50;99.90;;;;;;4903725;29;20087;-81
2023/01/19 09:43:40;;;;;;;7.35;4.25;;;2.50;99.90;;;;;;4920284;29;20130;-80
2023/01/19 09:46:35;;;;;;;8.20;4.93;;;2.50;99.90;;;;;;4906322;29;20048;-81
2023/01/19 09:49:15;;;;;;;5.72;4.38;;;2.50;99.90;;;;;;4913257;29;20062;-81
2023/01/19 09:51:48;;;;;;;11.80;4.65;;;2.40;99.90;;;;;;4905841;29;20044;-79
2023/01/19 09:54:22;;;;;;;6.47;4.20;;;2.40;99.90;;;;;;4914702;29;20048;-80
2023/01/19 09:56:49;;;;;;;5.90;4.10;;;2.40;99.90;;;;;;4913119;29;20127;-79
2023/01/19 09:59:21;;;;;;;8.73;4.80;;;2.40;99.90;;;;;;4899098;29;20426;-80
2023/01/19 10:02:05;;;;;;;7.18;4.50;;;2.40;99.90;;;;;;4903453;29;20490;-79
2023/01/19 10:04:37;;;;;;;8.18;4.47;;;2.40;99.90;;;;;;4911008;29;20058;-79
2023/01/19 10:07:07;;;;;;;8.00;4.00;;;2.40;99.90;;;;;;4918276;29;20446;-79
2023/01/19 10:09:45;;;;;;;;;;;2.40;99.90;;;;;;4916504;29;20059;-79
2023/01/19 10:12:25;;;;;;;8.57;4.88;;;2.50;99.90;;;;;;4917001;29;19923;-79
2023/01/19 10:15:03;;;;;;;8.07;5.13;;;2.50;99.90;;;;;;4914653;29;20052;-80
2023/01/19 10:17:51;;;;;;;6.80;5.20;;;2.50;99.90;;;;;;4908451;29;20052;-81
2023/01/19 10:20:45;;;;;;;7.90;5.05;;;2.50;99.90;;;;;;4907448;29;20067;-81
2023/01/19 10:23:31;;;;;;;9.05;5.90;;;2.50;99.90;;;;;;4914880;29;20057;-80
2023/01/19 10:26:01;;;;;;;7.93;4.53;;;2.60;99.90;;;;;;4893007;29;20054;-79
2023/01/19 10:28:29;;;;;;;10.80;4.65;;;2.50;99.90;;;;;;4917919;29;20052;-79
2023/01/19 10:30:55;;;;;;;6.32;4.28;;;2.60;99.90;;;;;;4913476;29;20461;-80
2023/01/19 10:33:22;;;;;;;9.00;4.70;;;2.70;99.90;;;;;;4918957;29;20115;-79
2023/01/19 10:35:49;;;;;;;8.93;4.78;;;2.70;99.90;;;;;;4906596;29;20053;-79
2023/01/19 10:38:20;;;;;;;8.30;5.22;;;2.80;99.90;;;;;;4911898;29;20056;-78
2023/01/19 10:41:03;;;;;;;6.22;4.43;;;2.80;99.90;;;;;;4910818;29;20060;-79
2023/01/19 10:43:33;;;;;;;7.30;4.72;;;2.80;99.90;;;;;;4920606;29;20052;-78
2023/01/19 10:46:04;;;;;;;7.97;4.65;;;2.90;99.90;;;;;;4913345;29;20079;-80
2023/01/19 10:48:40;;;;;;;5.75;4.72;;;2.90;99.90;;;;;;4902140;29;20063;-79
2023/01/19 10:51:09;;;;;;;8.00;4.80;;;2.90;99.90;;;;;;4911335;29;20049;-80
2023/01/19 10:53:36;;;;;;;10.20;5.97;;;3.00;99.90;;;;;;4920354;29;20116;-80
2023/01/19 10:56:14;;;;;;;7.88;4.82;;;3.00;99.90;;;;;;4913992;29;20056;-80
2023/01/19 10:58:41;;;;;;;7.07;5.80;;;3.10;99.90;;;;;;4917221;29;20063;-80
2023/01/19 11:01:23;;;;;;;10.20;4.65;;;3.10;99.90;;;;;;4919339;29;20040;-79
2023/01/19 11:03:52;;;;;;;8.00;4.47;;;3.20;99.90;;;;;;4914673;29;20052;-77
2023/01/19 11:06:28;;;;;;;7.70;4.00;;;3.30;99.90;;;;;;4903138;29;20040;-79
2023/01/19 11:09:16;;;;;;;9.40;4.38;;;3.30;99.90;;;;;;4893296;29;20048;-79
2023/01/19 11:11:51;;;;;;;7.07;4.68;;;3.30;99.90;;;;;;4898917;29;20060;-80
2023/01/19 11:14:21;;;;;;;11.82;4.07;;;3.30;99.90;;;;;;4898167;29;20107;-79
2023/01/19 11:16:53;;;;;;;7.05;4.05;;;3.40;99.90;;;;;;4913473;29;20064;-79
2023/01/19 11:19:32;;;;;;;9.65;4.20;;;3.50;99.90;;;;;;4901377;29;20072;-80
2023/01/19 11:22:25;;;;;;;8.75;3.63;;;3.50;99.90;;;;;;4908327;29;20056;-81
2023/01/19 11:24:57;;;;;;;10.82;4.22;;;3.60;99.90;;;;;;4883648;29;20063;-80
2023/01/19 11:27:25;;;;;;;5.65;3.80;;;3.60;99.90;;;;;;4904323;29;20113;-81
2023/01/19 11:30:19;;;;;;;9.45;4.10;;;3.60;99.90;;;;;;4908602;29;20506;-81
2023/01/19 11:32:48;;;;;;;8.93;3.80;;;3.70;99.90;;;;;;4905759;29;20051;-81
2023/01/19 11:35:38;;;;;;;4.20;3.33;;;3.70;99.90;;;;;;4908737;29;20493;-81
2023/01/19 11:38:11;;;;;;;5.78;3.50;;;3.70;99.90;;;;;;4907248;29;20402;-80
2023/01/19 11:40:40;;;;;;;8.05;3.55;;;3.70;99.90;;;;;;4905760;29;20167;-80
2023/01/19 11:43:12;;;;;;;6.38;3.65;;;3.70;99.90;;;;;;4901226;29;20056;-80
2023/01/19 11:45:39;;;;;;;7.13;3.80;;;3.70;99.90;;;;;;4904545;29;20116;-81
2023/01/19 11:48:11;;;;;;;7.00;3.78;;;3.60;99.90;;;;;;4898861;29;20048;-79
2023/01/19 11:50:41;;;;;;;11.15;3.63;;;3.50;99.90;;;;;;4916712;29;20493;-80
2023/01/19 11:53:32;;;;;;;7.00;3.70;;;3.50;99.90;;;;;;4906517;29;20052;-79
2023/01/19 11:56:11;;;;;;;6.45;3.83;;;3.50;99.90;;;;;;4918033;29;20700;-80
2023/01/19 11:58:40;;;;;;;4.72;3.72;;;3.50;99.90;;;;;;4900550;29;20092;-79
2023/01/19 12:01:19;;;;;;;6.82;3.63;;;3.50;99.90;;;;;;4906247;29;20107;-79
2023/01/19 12:04:14;;;;;;;5.97;3.90;;;3.50;99.90;;;;;;4902312;29;20366;-80
2023/01/19 12:06:51;;;;;;;8.65;4.15;;;3.60;99.90;;;;;;4913998;29;20120;-81
2023/01/19 12:09:23;;;;;;;9.73;4.65;;;3.60;99.90;;;;;;4910993;29;20052;-80
2023/01/19 12:11:59;;;;;;;11.90;4.85;;;3.70;99.90;;;;;;4904019;29;20100;-81
2023/01/19 12:14:58;;;;;;;8.57;5.90;;;3.70;99.90;;;;;;4901565;29;20078;-81
2023/01/19 12:17:28;;;;;;;8.75;4.97;;;3.70;99.90;;;;;;4905305;29;20056;-80
2023/01/19 12:20:17;;;;;;;10.30;5.07;;;3.80;99.90;;;;;;4900522;29;20049;-80
2023/01/19 12:22:50;;;;;;;8.18;4.47;;;3.90;99.90;;;;;;4905026;29;20066;-81
2023/01/19 12:25:36;;;;;;;7.90;5.10;;;3.90;99.90;;;;;;4920179;29;20048;-80
2023/01/19 12:28:05;;;;;;;8.63;4.70;;;3.90;99.90;;;;;;4895843;29;20128;-80
2023/01/19 12:30:32;;;;;;;6.93;5.38;;;3.90;99.90;;;;;;4914855;29;20127;-81
2023/01/19 12:33:27;;;;;;;7.72;5.07;;;3.90;99.90;;;;;;4918450;29;20040;-80
2023/01/19 12:35:56;;;;;;;5.45;4.13;;;4.00;99.90;;;;;;4904710;29;20056;-81
2023/01/19 12:38:33;;;;;;;9.82;3.80;;;4.00;99.90;;;;;;4906591;29;20067;-81
2023/01/19 12:41:15;;;;;;;9.02;4.88;;;4.00;99.90;;;;;;4913671;29;20123;-79
2023/01/19 12:43:42;;;;;;;7.20;4.63;;;4.00;99.90;;;;;;4903924;29;20091;-81
2023/01/19 12:46:27;;;;;;;6.95;4.70;;;4.10;99.90;;;;;;4904775;29;20064;-81
2023/01/19 12:49:03;;;;;;;7.40;4.38;;;4.00;99.90;;;;;;4918392;29;20056;-81
2023/01/19 12:51:31;;;;;;;7.68;4.78;;;4.00;99.90;;;;;;4910497;29;20044;-81
2023/01/19 12:53:59;;;;;;;6.57;4.65;;;4.00;99.90;;;;;;4911548;29;20052;-81
2023/01/19 12:56:33;;;;;;;13.95;4.80;;;3.90;99.90;;;;;;4904824;29;20536;-80
2023/01/19 12:59:00;;;;;;;7.13;4.53;;;3.90;99.90;;;;;;4895315;29;20052;-81
2023/01/19 13:01:26;;;;;;;8.60;5.03;;;3.80;99.90;;;;;;4896823;29;20178;-81
2023/01/19 13:04:30;;;;;;;9.25;5.13;;;3.80;99.90;;;;;;4898982;29;20508;-81
2023/01/19 13:06:59;;;;;;;8.25;4.65;;;3.80;99.90;;;;;;4879523;29;20522;-81
2023/01/19 13:09:29;;;;;;;8.88;4.80;;;3.80;99.90;;;;;;4900379;29;20087;-80
2023/01/19 13:12:20;;;;;;;11.00;5.38;;;3.80;99.90;;;;;;4893475;29;20091;-81
2023/01/19 13:14:47;;;;;;;;;;;3.70;99.90;;;;;;4900011;29;20048;-80
2023/01/19 13:17:29;;;;;;;6.57;4.25;;;3.70;99.90;;;;;;4915305;29;19923;-81
2023/01/19 13:20:20;;;;;;;22.55;12.85;;;3.70;99.90;;;;;;4893165;29;20097;-80
2023/01/19 13:23:19;;;;;;;8.23;4.57;;;3.70;99.90;;;;;;4905183;29;20104;-80
2023/01/19 13:25:50;;;;;;;8.02;4.35;;;3.70;99.90;;;;;;4896543;29;20059;-82
2023/01/19 13:28:18;;;;;;;7.22;5.00;;;3.70;99.90;;;;;;4923917;29;20052;-80
2023/01/19 13:30:54;;;;;;;7.50;4.82;;;3.70;99.90;;;;;;4906517;29;20139;-81
2023/01/19 13:33:24;;;;;;;8.60;5.35;;;3.70;99.90;;;;;;4895081;29;20070;-80
2023/01/19 13:35:57;;;;;;;6.18;4.68;;;3.80;99.90;;;;;;4897440;29;20079;-81
2023/01/19 13:38:27;;;;;;;10.15;5.03;;;3.80;99.90;;;;;;4878244;29;20135;-81
2023/01/19 13:40:55;;;;;;;6.47;3.85;;;3.90;99.90;;;;;;4898859;29;20132;-80
2023/01/19 13:43:36;;;;;;;8.68;4.75;;;3.90;99.90;;;;;;4900413;29;20114;-81
2023/01/19 13:46:03;;;;;;;7.78;4.50;;;3.90;99.90;;;;;;4889264;29;20044;-80
2023/01/19 13:48:31;;;;;;;11.13;5.55;;;3.90;99.90;;;;;;4893870;29;20051;-81
2023/01/19 13:50:59;;;;;;;10.35;5.25;;;3.90;99.90;;;;;;4891742;29;20498;-81
2023/01/19 13:53:28;;;;;;;8.38;4.43;;;3.90;99.90;;;;;;4903047;29;20166;-81
2023/01/19 13:56:19;;;;;;;7.57;4.72;;;3.90;99.90;;;;;;4901819;29;20059;-80
2023/01/19 13:59:04;;;;;;;6.10;4.45;;;4.00;99.90;;;;;;4901509;29;20048;-80
2023/01/19 14:01:31;;;;;;;9.05;4.80;;;3.90;99.90;;;;;;4900173;29;20674;-81
2023/01/19 14:03:59;;;;;;;9.13;4.35;;;3.90;99.90;;;;;;4910066;29;20062;-81
2023/01/19 14:06:38;;;;;;;4.70;3.90;;;3.90;99.90;;;;;;4903892;29;20087;-81
2023/01/19 14:09:17;;;;;;;8.05;3.83;;;3.90;99.90;;;;;;4896189;29;20143;-81
2023/01/19 14:12:03;;;;;;;7.90;4.85;;;3.90;99.90;;;;;;4913374;29;20203;-82
2023/01/19 14:14:30;;;;;;;5.75;3.80;;;3.90;99.90;;;;;;4897490;29;20044;-81
2023/01/19 14:16:57;;;;;;;5.65;3.47;;;3.90;99.90;;;;;;4907245;29;20084;-81
2023/01/19 14:19:24;;;;;;;5.50;3.97;;;3.90;99.90;;;;;;4911620;29;20052;-81
2023/01/19 14:22:02;;;;;;;6.18;4.07;;;3.90;99.90;;;;;;4910224;29;20097;-82
2023/01/19 14:24:31;;;;;;;5.25;3.25;;;3.90;99.90;;;;;;4907712;29;20067;-81
2023/01/19 14:27:23;;;;;;;7.40;4.00;;;3.90;99.90;;;;;;4904167;29;20045;-80
2023/01/19 14:29:53;;;;;;;10.13;4.30;;;3.90;99.90;;;;;;4917862;29;20048;-81
2023/01/19 14:32:24;;;;;;;8.25;4.38;;;3.90;99.90;;;;;;4900081;29;20057;-81
2023/01/19 14:35:02;;;;;;;5.30;3.47;;;3.90;99.90;;;;;;4897882;29;20063;-80
2023/01/19 14:37:35;;;;;;;9.32;4.18;;;3.80;99.90;;;;;;4908903;29;20044;-80
2023/01/19 14:40:11;;;;;;;7.78;3.50;;;3.70;99.90;;;;;;4911898;29;20090;-80
2023/01/19 14:42:48;;;;;;;6.45;3.45;;;3.70;99.90;;;;;;4908196;29;20060;-80
2023/01/19 14:45:24;;;;;;;7.75;4.68;;;3.70;99.90;;;;;;4909113;29;20486;-81
2023/01/19 14:48:01;;;;;;;7.72;4.82;;;3.70;99.90;;;;;;4904307;29;20053;-81
2023/01/19 14:50:38;;;;;;;5.30;3.10;;;3.60;99.90;;;;;;4902545;29;20100;-80
2023/01/19 14:53:15;;;;;;;6.22;3.58;;;3.60;99.90;;;;;;4908412;29;20059;-80
2023/01/19 14:56:24;;;;;;;4.47;3.55;;;3.60;99.90;;;;;;4904616;29;20056;-81
2023/01/19 14:58:51;;;;;;;6.60;3.67;;;3.60;99.90;;;;;;4852969;29;20084;-80
2023/01/19 15:01:18;;;;;;;6.82;2.95;;;3.60;99.90;;;;;;4888299;29;20135;-80
2023/01/19 15:03:45;;;;;;;5.15;3.40;;;3.50;99.90;;;;;;4904229;29;20060;-81
2023/01/19 15:06:16;;;;;;;8.48;4.50;;;3.60;99.90;;;;;;4913886;29;20383;-80
2023/01/19 15:08:44;;;;;;;10.75;4.57;;;3.60;99.90;;;;;;4905547;29;20048;-80
2023/01/19 15:11:22;;;;;;;7.50;4.68;;;3.60;99.90;;;;;;4897258;29;20052;-80
2023/01/19 15:13:49;;;;;;;7.30;3.80;;;3.60;99.90;;;;;;4916002;29;20116;-80
2023/01/19 15:16:16;;;;;;;7.35;4.40;;;3.60;99.90;;;;;;4917957;29;20064;-82
2023/01/19 15:18:43;;;;;;;5.75;3.88;;;3.60;99.90;;;;;;4902777;29;20068;-80
2023/01/19 15:21:15;;;;;;;6.15;3.80;;;3.60;99.90;;;;;;4903262;29;20096;-81
2023/01/19 15:23:41;;;;;;;6.10;3.65;;;3.60;99.90;;;;;;4902393;29;20112;-81
2023/01/19 15:26:14;;;;;;;7.50;4.20;;;3.60;99.90;;;;;;4906942;29;20083;-81
2023/01/19 15:28:41;;;;;;;8.27;4.28;;;3.60;99.90;;;;;;4901242;29;20414;-80
2023/01/19 15:31:14;;;;;;;8.32;3.85;;;3.60;99.90;;;;;;4910325;29;20104;-82
2023/01/19 15:33:41;;;;;;;6.50;3.88;;;3.60;99.90;;;;;;4905258;29;20127;-81
2023/01/19 15:36:12;;;;;;;7.80;4.00;;;3.60;99.90;;;;;;4916427;29;20431;-80
2023/01/19 15:38:39;;;;;;;6.30;4.35;;;3.60;99.90;;;;;;4919696;29;20066;-80
2023/01/19 15:41:13;;;;;;;5.05;3.42;;;3.50;99.90;;;;;;4910392;29;20143;-81
2023/01/19 15:43:40;;;;;;;8.10;3.92;;;3.50;99.90;;;;;;4922915;29;20060;-79
2023/01/19 15:46:09;;;;;;;6.10;3.72;;;3.50;99.90;;;;;;4902270;29;20063;-80
2023/01/19 15:48:36;;;;;;;6.90;3.78;;;3.40;99.90;;;;;;4901639;29;20068;-80
2023/01/19 15:51:04;;;;;;;8.93;4.28;;;3.40;99.90;;;;;;4907687;29;20048;-79
2023/01/19 15:53:31;;;;;;;5.05;3.53;;;3.40;99.90;;;;;;4912994;29;20116;-78
2023/01/19 15:55:57;;;;;;;6.72;3.80;;;3.40;99.90;;;;;;4905664;29;20566;-81
2023/01/19 15:58:25;;;;;;;8.60;4.20;;;3.30;99.90;;;;;;4905304;29;20045;-80
2023/01/19 16:00:54;;;;;;;7.45;3.60;;;3.40;99.90;;;;;;4899306;29;20495;-79
2023/01/19 16:03:23;;;;;;;6.30;3.80;;;3.30;99.90;;;;;;4916765;29;20060;-80
2023/01/19 16:05:50;;;;;;;6.70;4.38;;;3.30;99.90;;;;;;4904424;29;20108;-81
2023/01/19 16:08:17;;;;;;;10.27;4.38;;;3.30;99.90;;;;;;4903461;29;20135;-81
2023/01/19 16:10:44;;;;;;;9.73;5.63;;;3.30;99.90;;;;;;4904415;29;20084;-80
2023/01/19 16:13:11;;;;;;;6.80;4.28;;;3.20;99.90;;;;;;4903495;29;20120;-80
2023/01/19 16:15:38;;;;;;;8.75;5.80;;;3.20;99.90;;;;;;4905740;29;20109;-84
2023/01/19 16:18:05;;;;;;;10.90;4.43;;;3.20;99.90;;;;;;4920926;29;20087;-80
2023/01/19 16:20:32;;;;;;;7.25;4.07;;;3.20;99.90;;;;;;4891887;29;20502;-78
2023/01/19 16:22:59;;;;;;;6.80;4.45;;;3.10;99.90;;;;;;4906813;29;20152;-78
2023/01/19 16:25:40;;;;;;;8.38;4.85;;;3.10;99.90;;;;;;4915294;29;20146;-78
2023/01/19 16:28:07;;;;;;;7.35;4.68;;;3.00;99.90;;;;;;4913011;29;20084;-78
2023/01/19 16:30:34;;;;;;;10.82;5.63;;;3.00;99.90;;;;;;4902910;29;20059;-78
2023/01/19 16:33:00;;;;;;;11.60;6.82;;;2.90;99.90;;;;;;4901912;29;20467;-78
2023/01/19 16:35:27;;;;;;;14.68;7.00;;;2.90;99.90;;;;;;4919246;29;20055;-79
2023/01/19 16:37:54;;;;;;;14.13;7.88;;;2.90;99.90;;;;;;4901241;29;20076;-79
2023/01/19 16:40:21;;;;;;;11.70;7.45;;;2.90;99.90;;;;;;4919317;29;20497;-81
2023/01/19 16:42:47;;;;;;;8.63;5.75;;;2.90;99.90;;;;;;4903667;29;20056;-79
2023/01/19 16:45:14;;;;;;;10.02;5.93;;;2.80;99.90;;;;;;4903562;29;20048;-80
2023/01/19 16:47:41;;;;;;;10.35;5.78;;;2.80;99.90;;;;;;4913847;29;20084;-79
2023/01/19 16:50:11;;;;;;;11.50;5.55;;;2.80;99.90;;;;;;4901949;29;20311;-80
2023/01/19 16:52:39;;;;;;;10.23;5.93;;;2.70;99.90;;;;;;4919239;29;20048;-81
2023/01/19 16:55:08;;;;;;;14.73;6.90;;;2.70;99.90;;;;;;4903905;29;20058;-80
2023/01/19 16:57:38;;;;;;;9.97;6.30;;;2.70;99.90;;;;;;4905253;29;20532;-80
2023/01/19 17:00:07;;;;;;;6.88;5.45;;;2.70;99.90;;;;;;4900650;29;20092;-79
2023/01/19 17:02:35;;;;;;;7.55;4.80;;;2.70;99.90;;;;;;4906066;29;20048;-79
2023/01/19 17:05:02;;;;;;;8.98;4.95;;;2.70;99.90;;;;;;4917090;23;20060;-78
2023/01/19 17:07:29;;;;;;;9.57;5.32;;;2.70;99.90;;;;;;4905781;29;20062;-78
2023/01/19 17:09:56;;;;;;;10.88;6.05;;;2.70;99.90;;;;;;4898057;29;20079;-77
2023/01/19 17:12:23;;;;;;;13.10;6.78;;;2.70;99.90;;;;;;4899212;29;20048;-78
2023/01/19 17:14:50;;;;;;;14.77;7.78;;;2.70;99.90;;;;;;4909513;29;20084;-79
2023/01/19 17:17:16;;;;;;;9.85;6.72;;;2.70;99.90;;;;;;4881543;29;20104;-79
2023/01/19 17:19:43;;;;;;;21.33;12.85;;;2.60;99.90;;;;;;4881929;29;20053;-78
2023/01/19 17:22:11;;;;;;;28.80;12.95;;;2.60;99.90;;;;;;4878910;29;20072;-79
2023/01/19 17:24:41;;;;;;;20.80;12.23;;;2.60;99.90;;;;;;4897600;29;20121;-79
2023/01/19 17:27:08;;;;;;;11.70;7.93;;;2.60;99.90;;;;;;4882016;29;20052;-78
2023/01/19 17:29:35;;;;;;;15.27;6.63;;;2.50;99.90;;;;;;4881177;29;20121;-79
2023/01/19 17:32:02;;;;;;;12.20;5.53;;;2.50;99.90;;;;;;4880490;29;20049;-79
2023/01/19 17:34:29;;;;;;;8.40;5.13;;;2.50;99.90;;;;;;4883045;29;20055;-80
2023/01/19 17:37:01;;;;;;;9.43;5.00;;;2.40;99.90;;;;;;4898010;29;20151;-79
2023/01/19 17:39:29;;;;;;;5.68;4.15;;;2.40;99.90;;;;;;4880692;29;20064;-78
2023/01/19 17:41:56;;;;;;;7.50;4.65;;;2.40;99.90;;;;;;4894275;29;20053;-78
2023/01/19 17:44:23;;;;;;;8.07;5.72;;;2.40;99.90;;;;;;4897032;29;20051;-77
2023/01/19 17:46:50;;;;;;;8.38;5.20;;;2.40;99.90;;;;;;4878976;29;20053;-78
2023/01/19 17:49:16;;;;;;;10.52;5.30;;;2.40;99.90;;;;;;4892895;29;20060;-80
2023/01/19 17:51:43;;;;;;;9.90;5.60;;;2.40;99.90;;;;;;4897389;29;20405;-78
2023/01/19 17:54:10;;;;;;;7.38;5.18;;;2.40;99.90;;;;;;4899111;29;20050;-79
2023/01/19 17:56:37;;;;;;;7.57;4.57;;;2.40;99.90;;;;;;4883196;29;20160;-78
2023/01/19 17:59:06;;;;;;;6.43;4.20;;;2.40;99.90;;;;;;4881586;29;20060;-79
2023/01/19 18:01:37;;;;;;;9.37;4.00;;;2.40;99.90;;;;;;4899082;29;20083;-78
2023/01/19 18:04:04;;;;;;;5.75;3.90;;;2.50;99.90;;;;;;4881719;29;20059;-79
2023/01/19 18:06:31;;;;;;;7.95;3.72;;;2.50;99.90;;;;;;4882131;29;20056;-79
2023/01/19 18:08:58;;;;;;;6.80;3.97;;;2.50;99.90;;;;;;4882175;29;20480;-79
2023/01/19 18:11:26;;;;;;;5.65;4.10;;;2.50;99.90;;;;;;4880879;29;20053;-79
2023/01/19 18:13:53;;;;;;;8.30;4.18;;;2.50;99.90;;;;;;4880333;29;20308;-78
2023/01/19 18:16:24;;;;;;;7.45;4.00;;;2.50;99.90;;;;;;4881425;29;20053;-78
2023/01/19 18:18:53;;;;;;;5.63;3.80;;;2.50;99.90;;;;;;4895751;29;20059;-77
2023/01/19 18:21:21;;;;;;;6.68;4.20;;;2.50;99.90;;;;;;4882991;29;20057;-79
2023/01/19 18:23:49;;;;;;;7.45;5.05;;;2.60;99.90;;;;;;4910045;29;20073;-78
2023/01/19 18:26:19;;;;;;;9.82;5.43;;;2.60;99.90;;;;;;4906186;29;20057;-78
2023/01/19 18:28:47;;;;;;;10.18;6.47;;;2.60;99.90;;;;;;4883359;29;20063;-78
2023/01/19 18:31:16;;;;;;;39.83;21.63;;;2.60;99.90;;;;;;4882462;29;20104;-79
2023/01/19 18:33:43;;;;;;;75.75;41.95;;;2.60;99.90;;;;;;4892712;29;20550;-79
2023/01/19 18:36:09;;;;;;;49.60;28.10;;;2.70;99.90;;;;;;4893318;29;20057;-78
2023/01/19 18:38:37;;;;;;;28.80;17.20;;;2.70;99.90;;;;;;4898300;29;20111;-79
2023/01/19 18:41:08;;;;;;;15.07;8.18;;;2.70;99.90;;;;;;4893165;29;20147;-78
2023/01/19 18:43:34;;;;;;;6.15;4.03;;;2.70;99.90;;;;;;4898215;29;20147;-79
2023/01/19 18:46:02;;;;;;;7.47;3.50;;;2.70;99.90;;;;;;4898001;29;20143;-78
2023/01/19 18:48:29;;;;;;;10.10;4.00;;;2.70;99.90;;;;;;4896044;29;20061;-78
2023/01/19 18:50:56;;;;;;;9.18;4.43;;;2.70;99.90;;;;;;4882880;29;20064;-79
2023/01/19 18:53:23;;;;;;;4.65;4.10;;;2.70;99.90;;;;;;4882902;29;20091;-79
2023/01/19 18:55:55;;;;;;;6.88;3.30;;;2.70;99.90;;;;;;4878760;29;20136;-79
2023/01/19 18:58:22;;;;;;;5.72;4.00;;;2.70;99.90;;;;;;4898839;29;20079;-79
2023/01/19 19:00:50;;;;;;;7.60;4.00;;;2.70;99.90;;;;;;4877600;29;20088;-79
2023/01/19 19:03:16;;;;;;;9.15;4.82;;;2.70;99.90;;;;;;4903416;29;20124;-79
2023/01/19 19:05:43;;;;;;;10.70;5.60;;;2.60;99.90;;;;;;4886501;29;20063;-79
2023/01/19 19:08:10;;;;;;;7.72;5.45;;;2.60;99.90;;;;;;4902846;29;20402;-78
2023/01/19 19:10:40;;;;;;;7.13;4.45;;;2.60;99.90;;;;;;4885060;29;20135;-79
2023/01/19 19:13:07;;;;;;;5.20;4.05;;;2.60;99.90;;;;;;4898186;29;20146;-79
2023/01/19 19:15:34;;;;;;;8.60;4.38;;;2.60;99.90;;;;;;4900534;29;20523;-79
2023/01/19 19:18:01;;;;;;;9.48;4.38;;;2.60;99.90;;;;;;4901904;29;20180;-78
2023/01/19 19:20:28;;;;;;;7.53;4.22;;;2.50;99.90;;;;;;4901096;29;20525;-79
2023/01/19 19:22:55;;;;;;;7.15;4.53;;;2.50;99.90;;;;;;4882206;29;20399;-79
2023/01/19 19:25:22;;;;;;;5.93;4.30;;;2.50;99.90;;;;;;4901646;29;20060;-78
2023/01/19 19:27:54;;;;;;;8.90;4.47;;;2.40;99.90;;;;;;4885292;29;20059;-78
2023/01/19 19:30:20;;;;;;;8.55;5.60;;;2.40;99.90;;;;;;4901296;29;20048;-78
2023/01/19 19:32:52;;;;;;;12.73;6.53;;;2.50;99.90;;;;;;4882322;29;20128;-77
2023/01/19 19:35:20;;;;;;;7.25;4.80;;;2.40;99.90;;;;;;4882737;29;20048;-79
2023/01/19 19:37:47;;;;;;;5.60;3.80;;;2.40;99.90;;;;;;4883362;29;20400;-78
2023/01/19 19:40:14;;;;;;;5.63;3.58;;;2.40;99.90;;;;;;4883206;29;20084;-77
2023/01/19 19:42:41;;;;;;;5.97;3.75;;;2.30;99.90;;;;;;4895590;29;20077;-78
2023/01/19 19:45:08;;;;;;;6.82;3.78;;;2.30;99.90;;;;;;4866933;29;20080;-78
2023/01/19 19:47:35;;;;;;;6.35;3.70;;;2.30;99.90;;;;;;4883439;29;20080;-77
2023/01/19 19:50:02;;;;;;;5.55;3.28;;;2.20;99.90;;;;;;4883163;29;20112;-78
2023/01/19 19:52:29;;;;;;;5.03;3.50;;;2.10;99.90;;;;;;4899119;29;20607;-78
2023/01/19 19:54:55;;;;;;;6.47;3.88;;;2.10;99.90;;;;;;4876710;29;20410;-77
2023/01/19 19:57:23;;;;;;;6.38;3.95;;;2.10;99.90;;;;;;4882688;29;20475;-78
2023/01/19 19:59:49;;;;;;;6.80;4.78;;;2.10;99.90;;;;;;4881956;29;20084;-77
2023/01/19 20:02:16;;;;;;;4.35;3.08;;;2.00;99.90;;;;;;4899608;29;20081;-77
2023/01/19 20:04:43;;;;;;;5.28;3.17;;;2.00;99.90;;;;;;4882972;29;20056;-77
2023/01/19 20:07:10;;;;;;;5.07;3.10;;;2.00;99.90;;;;;;4881751;29;20470;-78
2023/01/19 20:09:37;;;;;;;6.38;2.72;;;1.90;99.90;;;;;;4885231;29;20052;-79
2023/01/19 20:12:04;;;;;;;4.20;2.88;;;1.90;99.90;;;;;;4902687;29;20048;-78
2023/01/19 20:14:31;;;;;;;3.85;2.55;;;1.90;99.90;;;;;;4901993;29;20048;-78
2023/01/19 20:16:58;;;;;;;4.18;2.90;;;1.90;99.90;;;;;;4883354;29;20060;-78
2023/01/19 20:19:24;;;;;;;4.63;2.70;;;2.00;99.90;;;;;;4915303;29;20040;-80
2023/01/19 20:21:51;;;;;;;7.28;3.05;;;2.00;99.90;;;;;;4905164;29;20123;-79
2023/01/19 20:24:19;;;;;;;6.88;3.10;;;1.90;99.90;;;;;;4904594;29;20064;-78
2023/01/19 20:26:51;;;;;;;5.65;3.30;;;2.00;99.90;;;;;;4921948;29;20049;-79
2023/01/19 20:29:18;;;;;;;6.78;2.90;;;1.90;99.90;;;;;;4907770;29;20064;-78